Time;durP1;ratioP1;P1;durP2;ratioP2;P2;SDS_P1;SDS_P2;PMS_P1;PMS_P2;Temp;Humidity;BMP_temperature;BMP_pressure;BME280_temperature;BME280_humidity;BME280_pressure;Samples;Min_cycle;Max_cycle;Signal;HPM_P1;HPM_P2
2021/09/21 00:01:06;;;;;;;8.88;6.70;;;12.80;99.90;;;;;;5095614;28;20103;-67
2021/09/21 00:03:33;;;;;;;10.43;6.80;;;12.80;99.90;;;;;;5095514;28;20504;-67
2021/09/21 00:05:59;;;;;;;9.10;6.13;;;12.80;99.90;;;;;;5094566;28;20040;-67
2021/09/21 00:08:27;;;;;;;6.80;5.90;;;12.80;99.90;;;;;;5095856;28;20040;-67
2021/09/21 00:10:54;;;;;;;8.38;6.78;;;12.70;99.90;;;;;;5095853;28;20051;-67
2021/09/21 00:13:19;;;;;;;7.32;5.82;;;12.70;99.90;;;;;;5095947;28;20051;-67
2021/09/21 00:15:45;;;;;;;10.20;5.43;;;12.60;99.90;;;;;;5095439;28;20036;-67
2021/09/21 00:18:11;;;;;;;8.80;6.18;;;12.60;99.90;;;;;;5095451;28;20071;-67
2021/09/21 00:20:36;;;;;;;7.72;6.20;;;12.70;99.90;;;;;;5094962;28;20097;-67
2021/09/21 00:23:02;;;;;;;7.47;6.25;;;12.70;99.90;;;;;;5094274;28;20463;-67
2021/09/21 00:25:28;;;;;;;9.25;6.60;;;12.70;99.90;;;;;;5095349;28;20107;-67
2021/09/21 00:27:53;;;;;;;7.50;5.55;;;12.70;99.90;;;;;;5094408;28;20032;-67
2021/09/21 00:30:20;;;;;;;10.07;6.38;;;12.70;99.90;;;;;;5094677;28;20482;-67
2021/09/21 00:32:49;;;;;;;7.25;5.90;;;12.70;99.90;;;;;;5095279;28;20035;-67
2021/09/21 00:35:14;;;;;;;9.55;6.50;;;12.70;99.90;;;;;;5094929;28;20051;-67
2021/09/21 00:37:40;;;;;;;8.77;6.00;;;12.70;99.90;;;;;;5094987;28;20044;-67
2021/09/21 00:40:06;;;;;;;7.78;5.57;;;12.70;99.90;;;;;;5094624;28;20043;-67
2021/09/21 00:42:32;;;;;;;8.30;6.03;;;12.70;99.90;;;;;;5094740;28;20046;-67
2021/09/21 00:45:04;;;;;;;9.38;5.65;;;12.70;99.90;;;;;;5095327;28;20099;-67
2021/09/21 00:47:30;;;;;;;7.93;6.25;;;12.70;99.90;;;;;;5093496;28;20430;-67
2021/09/21 00:49:56;;;;;;;7.95;5.97;;;12.70;99.90;;;;;;5094582;28;20040;-67
2021/09/21 00:52:22;;;;;;;7.68;6.13;;;12.80;99.90;;;;;;5094767;28;20036;-67
2021/09/21 00:54:49;;;;;;;6.78;5.45;;;12.70;99.90;;;;;;5095109;28;20050;-67
2021/09/21 00:57:14;;;;;;;6.30;5.50;;;12.80;99.90;;;;;;5095008;28;20071;-67
2021/09/21 00:59:40;;;;;;;7.28;5.80;;;12.80;99.90;;;;;;5094265;28;20048;-67
2021/09/21 01:02:06;;;;;;;8.50;6.05;;;12.70;99.90;;;;;;5092298;28;20488;-67
2021/09/21 01:04:32;;;;;;;7.28;6.45;;;12.70;99.90;;;;;;5094861;28;20032;-67
2021/09/21 01:06:58;;;;;;;7.43;5.75;;;12.70;99.90;;;;;;5094512;28;20470;-67
2021/09/21 01:09:28;;;;;;;8.20;5.70;;;12.70;99.90;;;;;;5094108;28;20040;-67
2021/09/21 01:11:57;;;;;;;9.63;6.25;;;12.70;99.90;;;;;;5093195;28;20044;-67
2021/09/21 01:14:23;;;;;;;7.30;6.00;;;12.70;99.90;;;;;;5093204;28;20048;-67
2021/09/21 01:16:51;;;;;;;7.13;5.63;;;12.70;99.90;;;;;;5094439;28;20484;-67
2021/09/21 01:19:17;;;;;;;8.88;6.30;;;12.70;99.90;;;;;;5092939;28;20514;-67
2021/09/21 01:21:44;;;;;;;7.53;5.93;;;12.70;99.90;;;;;;5094025;28;20079;-67
2021/09/21 01:24:12;;;;;;;7.43;6.55;;;12.70;99.90;;;;;;5093971;28;20391;-67
2021/09/21 01:26:38;;;;;;;7.63;6.00;;;12.70;99.90;;;;;;5094119;28;20036;-67
2021/09/21 01:29:04;;;;;;;9.27;6.63;;;12.70;99.90;;;;;;5093630;28;20032;-67
2021/09/21 01:31:30;;;;;;;8.65;6.32;;;12.70;99.90;;;;;;5093926;28;20126;-67
2021/09/21 01:33:57;;;;;;;10.23;5.85;;;12.70;99.90;;;;;;5094332;28;20067;-67
2021/09/21 01:36:25;;;;;;;8.65;6.55;;;12.70;99.90;;;;;;5093904;28;20036;-67
2021/09/21 01:38:51;;;;;;;8.27;6.95;;;12.70;99.90;;;;;;5093416;28;20036;-67
2021/09/21 01:41:17;;;;;;;7.95;5.78;;;12.60;99.90;;;;;;5094146;28;20036;-67
2021/09/21 01:43:45;;;;;;;9.52;5.95;;;12.60;99.90;;;;;;5092482;28;20385;-67
2021/09/21 01:46:12;;;;;;;5.97;5.38;;;12.60;99.90;;;;;;5093925;28;20063;-67
2021/09/21 01:48:38;;;;;;;8.25;6.15;;;12.60;99.90;;;;;;5093520;28;20047;-67
2021/09/21 01:51:09;;;;;;;6.80;5.97;;;12.60;99.90;;;;;;5093974;28;20044;-67
2021/09/21 01:58:50;;;;;;;9.57;6.80;;;12.70;99.90;;;;;;5092389;28;20127;-67
2021/09/21 02:01:19;;;;;;;7.05;5.60;;;12.70;99.90;;;;;;5092246;28;20415;-67
2021/09/21 02:03:45;;;;;;;6.65;5.47;;;12.60;99.90;;;;;;5094120;28;20400;-67
2021/09/21 02:06:11;;;;;;;8.63;6.10;;;12.60;99.90;;;;;;5093397;28;20047;-67
2021/09/21 02:08:37;;;;;;;7.45;5.68;;;12.60;99.90;;;;;;5093504;28;20032;-67
2021/09/21 02:11:03;;;;;;;6.72;5.45;;;12.60;99.90;;;;;;5092042;28;20515;-67
2021/09/21 02:13:29;;;;;;;7.53;5.55;;;12.60;99.90;;;;;;5093148;28;20484;-67
2021/09/21 02:15:56;;;;;;;7.15;5.43;;;12.60;99.90;;;;;;5093264;28;20047;-67
2021/09/21 02:18:22;;;;;;;7.38;5.47;;;12.60;99.90;;;;;;5093279;28;20032;-67
2021/09/21 02:20:47;;;;;;;7.22;6.07;;;12.50;99.90;;;;;;5092801;28;20507;-67
2021/09/21 02:23:13;;;;;;;10.02;5.75;;;12.50;99.90;;;;;;5093595;28;20028;-67
2021/09/21 02:25:39;;;;;;;9.82;5.07;;;12.50;99.90;;;;;;5093395;28;20491;-67
2021/09/21 02:28:05;;;;;;;9.45;5.95;;;12.50;99.90;;;;;;5093459;28;20040;-67
2021/09/21 02:30:30;;;;;;;6.82;5.70;;;12.50;99.90;;;;;;5093615;28;20141;-67
2021/09/21 02:32:56;;;;;;;7.50;5.15;;;12.40;99.90;;;;;;5093933;28;20042;-67
2021/09/21 02:35:21;;;;;;;7.07;4.95;;;12.50;99.90;;;;;;5093290;28;20032;-67
2021/09/21 02:37:48;;;;;;;8.02;5.28;;;12.40;99.90;;;;;;5092225;28;20447;-67
2021/09/21 02:40:14;;;;;;;6.45;5.22;;;12.40;99.90;;;;;;5093374;28;20036;-67
2021/09/21 02:42:41;;;;;;;7.47;5.18;;;12.40;99.90;;;;;;5093318;28;20044;-67
2021/09/21 02:45:07;;;;;;;6.00;4.82;;;12.40;99.90;;;;;;5093605;28;20063;-67
2021/09/21 02:47:33;;;;;;;7.90;4.85;;;12.40;99.90;;;;;;5093237;28;20047;-67
2021/09/21 02:49:59;;;;;;;7.53;4.72;;;12.40;99.90;;;;;;5092785;28;20036;-67
2021/09/21 02:52:25;;;;;;;7.30;4.90;;;12.40;99.90;;;;;;5092823;28;20509;-67
2021/09/21 02:54:51;;;;;;;7.55;5.00;;;12.40;99.90;;;;;;5093366;28;20075;-67
2021/09/21 02:57:17;;;;;;;8.27;5.15;;;12.40;99.90;;;;;;5091660;28;20119;-67
2021/09/21 02:59:42;;;;;;;7.95;5.22;;;12.40;99.90;;;;;;5091523;28;20075;-67
2021/09/21 03:02:08;;;;;;;5.97;4.90;;;12.40;99.90;;;;;;5092716;28;20036;-67
2021/09/21 03:04:38;;;;;;;8.68;5.10;;;12.40;99.90;;;;;;5093221;28;20156;-67
2021/09/21 03:07:10;;;;;;;7.78;5.40;;;12.40;99.90;;;;;;5093185;28;20036;-67
2021/09/21 03:17:27;;;;;;;6.82;5.10;;;12.40;99.90;;;;;;5093043;28;20127;-67
2021/09/21 03:19:57;;;;;;;6.82;5.38;;;12.40;99.90;;;;;;5092360;28;20170;-67
2021/09/21 03:22:23;;;;;;;8.30;5.22;;;12.30;99.90;;;;;;5092846;28;20089;-67
2021/09/21 03:24:53;;;;;;;7.88;5.47;;;12.40;99.90;;;;;;5095426;28;20111;-67
2021/09/21 03:27:20;;;;;;;6.47;4.97;;;12.40;99.90;;;;;;5096773;28;20407;-67
2021/09/21 03:29:46;;;;;;;7.97;5.22;;;12.30;99.90;;;;;;5096093;28;20090;-67
2021/09/21 03:32:12;;;;;;;7.50;5.10;;;12.30;99.90;;;;;;5096555;28;20036;-67
2021/09/21 03:34:38;;;;;;;5.20;4.53;;;12.30;99.90;;;;;;5096292;28;20040;-67
2021/09/21 03:37:09;;;;;;;11.02;5.22;;;12.40;99.90;;;;;;5096394;28;20040;-67
2021/09/21 03:39:35;;;;;;;10.07;5.40;;;12.40;99.90;;;;;;5095777;28;20119;-67
2021/09/21 03:42:01;;;;;;;6.60;4.88;;;12.40;99.90;;;;;;5096127;28;20071;-67
2021/09/21 03:44:27;;;;;;;6.35;4.63;;;12.40;99.90;;;;;;5096283;28;20105;-67
2021/09/21 03:46:54;;;;;;;6.43;5.18;;;12.40;99.90;;;;;;5095930;28;20473;-67
2021/09/21 03:49:20;;;;;;;7.00;5.20;;;12.40;99.90;;;;;;5094321;28;20426;-67
2021/09/21 03:51:46;;;;;;;6.30;5.03;;;12.40;99.90;;;;;;5094514;28;20039;-67
2021/09/21 03:54:12;;;;;;;6.85;4.45;;;12.40;99.90;;;;;;5096121;28;20046;-67
2021/09/21 03:56:38;;;;;;;6.03;4.50;;;12.40;99.90;;;;;;5095896;28;20043;-67
2021/09/21 03:59:05;;;;;;;6.18;4.80;;;12.40;99.90;;;;;;5095511;28;20032;-67
2021/09/21 04:01:31;;;;;;;7.05;5.30;;;12.40;99.90;;;;;;5094355;28;20110;-67
2021/09/21 04:03:57;;;;;;;8.65;4.60;;;12.50;99.90;;;;;;5095797;28;20107;-67
2021/09/21 04:06:22;;;;;;;6.15;4.32;;;12.50;99.90;;;;;;5094267;28;20048;-67
2021/09/21 04:08:48;;;;;;;7.57;3.92;;;12.50;99.90;;;;;;5095484;28;20032;-67
2021/09/21 04:11:14;;;;;;;5.35;4.10;;;12.50;99.90;;;;;;5095596;28;20040;-67
2021/09/21 04:13:40;;;;;;;7.38;4.63;;;12.50;99.90;;;;;;5094111;28;20380;-67
2021/09/21 04:16:05;;;;;;;7.03;4.00;;;12.50;99.90;;;;;;5095318;28;20039;-67
2021/09/21 04:18:31;;;;;;;9.32;5.78;;;12.50;99.90;;;;;;5095189;28;20119;-67
2021/09/21 04:20:56;;;;;;;6.28;4.60;;;12.50;99.90;;;;;;5095155;28;20040;-67
2021/09/21 04:23:22;;;;;;;5.95;4.40;;;12.50;99.90;;;;;;5094005;28;20450;-67
2021/09/21 04:25:48;;;;;;;8.15;4.28;;;12.50;99.90;;;;;;5093826;28;20036;-67
2021/09/21 04:28:13;;;;;;;6.32;4.50;;;12.50;99.90;;;;;;5095416;28;20135;-67
2021/09/21 04:30:40;;;;;;;5.43;4.07;;;12.40;99.90;;;;;;5094865;28;20039;-67
2021/09/21 04:33:06;;;;;;;7.50;4.72;;;12.50;99.90;;;;;;5094862;28;20508;-67
2021/09/21 04:35:31;;;;;;;5.03;4.20;;;12.40;99.90;;;;;;5094317;28;20028;-67
2021/09/21 04:37:57;;;;;;;7.32;4.47;;;12.40;99.90;;;;;;5095151;28;20544;-67
2021/09/21 04:40:22;;;;;;;5.82;4.15;;;12.40;99.90;;;;;;5094075;28;20084;-67
2021/09/21 04:42:48;;;;;;;4.93;4.30;;;12.40;99.90;;;;;;5094810;28;20074;-67
2021/09/21 04:45:14;;;;;;;6.13;4.93;;;12.40;99.90;;;;;;5093834;28;20071;-67
2021/09/21 04:47:39;;;;;;;7.15;5.65;;;12.40;99.90;;;;;;5094866;28;20032;-67
2021/09/21 04:50:06;;;;;;;6.75;5.55;;;12.40;99.90;;;;;;5095071;28;20119;-67
2021/09/21 04:52:31;;;;;;;8.80;5.82;;;12.40;99.90;;;;;;5094523;28;20044;-67
2021/09/21 04:54:57;;;;;;;7.45;5.78;;;12.40;99.90;;;;;;5093999;28;20115;-67
2021/09/21 04:57:22;;;;;;;6.90;5.38;;;12.30;99.90;;;;;;5094680;28;20083;-67
2021/09/21 04:59:48;;;;;;;8.68;5.30;;;12.30;99.90;;;;;;5094624;28;20036;-67
2021/09/21 05:02:13;;;;;;;8.38;5.53;;;12.30;99.90;;;;;;5094350;28;20492;-67
2021/09/21 05:04:39;;;;;;;6.10;4.93;;;12.30;99.90;;;;;;5094394;28;20040;-67
2021/09/21 05:07:04;;;;;;;7.55;5.00;;;12.30;99.90;;;;;;5094474;28;20044;-67
2021/09/21 05:09:30;;;;;;;6.25;5.30;;;12.30;99.90;;;;;;5093978;28;20035;-67
2021/09/21 05:11:56;;;;;;;6.90;4.90;;;12.30;99.90;;;;;;5094410;28;20536;-67
2021/09/21 05:14:21;;;;;;;8.55;5.70;;;12.30;99.90;;;;;;5094123;28;20442;-67
2021/09/21 05:16:47;;;;;;;6.93;5.50;;;12.30;99.90;;;;;;5094316;28;20096;-67
2021/09/21 05:19:13;;;;;;;10.25;6.38;;;12.30;99.90;;;;;;5093801;28;20079;-67
2021/09/21 05:21:42;;;;;;;7.18;5.50;;;12.20;99.90;;;;;;5093829;28;20040;-67
2021/09/21 05:24:08;;;;;;;8.38;5.80;;;12.20;99.90;;;;;;5094630;28;20028;-67
2021/09/21 05:26:34;;;;;;;11.43;6.80;;;12.20;99.90;;;;;;5094089;28;20479;-67
2021/09/21 05:29:00;;;;;;;9.55;5.90;;;12.20;99.90;;;;;;5093861;28;20490;-67
2021/09/21 05:31:26;;;;;;;7.70;6.07;;;12.10;99.90;;;;;;5093969;28;20073;-67
2021/09/21 05:33:51;;;;;;;7.22;5.68;;;12.10;99.90;;;;;;5094365;28;20115;-67
2021/09/21 05:36:17;;;;;;;8.05;6.35;;;12.00;99.90;;;;;;5093869;28;20412;-67
2021/09/21 05:38:43;;;;;;;12.70;6.13;;;12.00;99.90;;;;;;5093813;28;20044;-67
2021/09/21 05:41:08;;;;;;;7.57;6.15;;;12.00;99.90;;;;;;5093633;28;20036;-67
2021/09/21 05:43:34;;;;;;;8.77;6.20;;;12.00;99.90;;;;;;5093484;28;20097;-67
2021/09/21 05:46:00;;;;;;;7.78;6.18;;;12.00;99.90;;;;;;5093562;28;20036;-67
2021/09/21 05:48:25;;;;;;;10.38;6.75;;;12.00;99.90;;;;;;5091906;28;20426;-67
2021/09/21 05:50:51;;;;;;;10.63;6.68;;;12.00;99.90;;;;;;5093324;28;20040;-67
2021/09/21 05:53:16;;;;;;;7.53;6.55;;;12.00;99.90;;;;;;5093478;28;20046;-67
2021/09/21 05:55:42;;;;;;;11.48;6.75;;;12.00;99.90;;;;;;5093671;28;20042;-67
2021/09/21 05:58:09;;;;;;;7.72;6.75;;;12.00;99.90;;;;;;5093561;28;20492;-67
2021/09/21 06:00:36;;;;;;;9.88;6.47;;;12.00;99.90;;;;;;5092240;28;20066;-67
2021/09/21 06:03:02;;;;;;;9.13;6.47;;;12.00;99.90;;;;;;5093495;28;20052;-67
2021/09/21 06:05:28;;;;;;;8.85;5.93;;;12.00;99.90;;;;;;5093445;28;20388;-67
2021/09/21 06:07:54;;;;;;;9.20;6.45;;;12.10;99.90;;;;;;5092685;28;20040;-67
2021/09/21 06:10:22;;;;;;;8.23;6.00;;;12.10;99.90;;;;;;5093113;28;20150;-67
2021/09/21 06:12:48;;;;;;;8.48;5.93;;;12.10;99.90;;;;;;5093527;28;20509;-67
2021/09/21 06:15:15;;;;;;;13.90;7.05;;;12.10;99.90;;;;;;5092202;28;20115;-67
2021/09/21 06:17:42;;;;;;;8.48;6.85;;;12.10;99.90;;;;;;5093189;28;20134;-67
2021/09/21 06:20:13;;;;;;;10.02;6.38;;;12.20;99.90;;;;;;5091665;28;20492;-67
2021/09/21 06:22:40;;;;;;;8.60;6.32;;;12.20;99.90;;;;;;5093296;28;20040;-66
2021/09/21 06:25:08;;;;;;;7.65;6.55;;;12.20;99.90;;;;;;5092243;28;20036;-67
2021/09/21 06:27:35;;;;;;;7.95;6.47;;;12.30;99.90;;;;;;5093442;28;20119;-67
2021/09/21 06:30:03;;;;;;;7.85;5.80;;;12.20;99.90;;;;;;5093341;28;20123;-67
2021/09/21 06:32:29;;;;;;;8.57;6.75;;;12.30;99.90;;;;;;5093194;28;20470;-67
2021/09/21 06:34:54;;;;;;;8.73;6.13;;;12.20;99.90;;;;;;5093199;28;20075;-67
2021/09/21 06:37:20;;;;;;;8.48;5.90;;;12.20;99.90;;;;;;5093322;28;20040;-67
2021/09/21 06:39:45;;;;;;;7.60;5.97;;;12.30;99.90;;;;;;5092695;28;20040;-67
2021/09/21 06:42:11;;;;;;;7.43;5.78;;;12.30;99.90;;;;;;5093442;28;20044;-67
2021/09/21 06:44:37;;;;;;;8.52;6.45;;;12.30;99.90;;;;;;5093145;28;20463;-67
2021/09/21 06:47:04;;;;;;;11.40;6.10;;;12.30;99.90;;;;;;5092951;28;20040;-67
2021/09/21 06:49:30;;;;;;;10.05;7.13;;;12.30;99.90;;;;;;5092516;28;20036;-67
2021/09/21 06:51:56;;;;;;;8.98;6.45;;;12.40;99.90;;;;;;5093273;28;20066;-67
2021/09/21 06:54:21;;;;;;;11.25;7.10;;;12.40;99.90;;;;;;5093169;28;20384;-67
2021/09/21 06:56:47;;;;;;;8.10;6.88;;;12.50;99.90;;;;;;5093079;28;20047;-67
2021/09/21 06:59:13;;;;;;;8.90;6.68;;;12.50;99.90;;;;;;5093019;28;20120;-67
2021/09/21 07:01:38;;;;;;;9.50;6.30;;;12.60;99.90;;;;;;5096046;28;20041;-66
2021/09/21 07:04:04;;;;;;;7.95;6.32;;;12.70;99.90;;;;;;5096911;28;20028;-67
2021/09/21 07:06:29;;;;;;;9.90;6.15;;;12.80;99.90;;;;;;5095460;28;20035;-67
2021/09/21 07:08:55;;;;;;;9.43;6.97;;;12.90;99.90;;;;;;5096316;28;20036;-66
2021/09/21 07:11:21;;;;;;;8.00;5.88;;;13.10;99.90;;;;;;5095448;28;20040;-67
2021/09/21 07:13:47;;;;;;;6.25;5.45;;;13.20;99.90;;;;;;5095287;28;20048;-67
2021/09/21 07:16:13;;;;;;;7.15;6.28;;;13.30;99.90;;;;;;5096600;28;20040;-67
2021/09/21 07:18:38;;;;;;;7.30;5.43;;;13.40;99.90;;;;;;5094937;28;20044;-67
2021/09/21 07:21:05;;;;;;;8.52;5.78;;;13.50;99.90;;;;;;5096098;28;20123;-67
2021/09/21 07:23:31;;;;;;;8.85;5.82;;;13.60;99.90;;;;;;5095685;28;20464;-66
2021/09/21 07:25:57;;;;;;;8.85;5.55;;;13.70;99.90;;;;;;5096590;28;20044;-67
2021/09/21 07:28:23;;;;;;;7.57;6.55;;;13.80;99.90;;;;;;5096245;28;20119;-67
2021/09/21 07:30:48;;;;;;;7.28;5.72;;;13.90;99.90;;;;;;5095985;28;20557;-67
2021/09/21 07:33:15;;;;;;;7.80;6.30;;;13.90;99.90;;;;;;5096841;28;20040;-67
2021/09/21 07:35:41;;;;;;;9.02;5.28;;;13.90;99.90;;;;;;5096175;28;20515;-67
2021/09/21 07:38:07;;;;;;;9.18;5.57;;;14.00;99.90;;;;;;5096168;28;20032;-66
2021/09/21 07:40:35;;;;;;;10.48;5.78;;;14.00;99.90;;;;;;5095906;28;20519;-66
2021/09/21 07:43:02;;;;;;;6.45;5.38;;;14.00;99.90;;;;;;5096207;28;20032;-66
2021/09/21 07:45:27;;;;;;;7.97;5.50;;;14.00;99.90;;;;;;5095993;28;20032;-67
2021/09/21 07:47:53;;;;;;;6.97;5.38;;;14.00;99.90;;;;;;5095760;28;20051;-67
2021/09/21 07:50:19;;;;;;;7.05;5.40;;;14.00;99.90;;;;;;5094414;28;20381;-67
2021/09/21 07:52:44;;;;;;;8.23;5.32;;;14.10;99.90;;;;;;5096006;28;20131;-67
2021/09/21 07:55:10;;;;;;;7.68;5.75;;;14.10;99.90;;;;;;5094618;28;20067;-67
2021/09/21 07:57:38;;;;;;;6.53;5.40;;;14.10;99.90;;;;;;5095585;28;20488;-67
2021/09/21 08:00:06;;;;;;;6.60;5.70;;;14.20;99.90;;;;;;5095314;28;20114;-67
2021/09/21 08:02:32;;;;;;;7.85;5.30;;;14.20;99.90;;;;;;5095597;28;20044;-67
2021/09/21 08:04:57;;;;;;;6.57;5.18;;;14.30;99.90;;;;;;5095609;28;20063;-67
2021/09/21 08:07:25;;;;;;;8.02;5.35;;;14.30;99.90;;;;;;5095413;28;20097;-67
2021/09/21 08:09:51;;;;;;;9.20;6.45;;;14.30;99.90;;;;;;5095388;28;20036;-67
2021/09/21 08:12:16;;;;;;;8.68;5.93;;;14.40;99.90;;;;;;5095390;28;20546;-67
2021/09/21 08:14:45;;;;;;;8.30;5.95;;;14.40;99.90;;;;;;5095751;28;20047;-66
2021/09/21 08:17:10;;;;;;;8.85;5.85;;;14.50;99.90;;;;;;5094303;28;20350;-67
2021/09/21 08:19:36;;;;;;;9.50;5.05;;;14.50;99.90;;;;;;5093863;28;20101;-66
2021/09/21 08:22:02;;;;;;;8.50;5.32;;;14.60;99.90;;;;;;5095023;28;20044;-67
2021/09/21 08:24:28;;;;;;;8.10;5.20;;;14.60;99.90;;;;;;5094281;28;20109;-67
2021/09/21 08:26:53;;;;;;;7.68;5.72;;;14.70;99.90;;;;;;5095036;28;20075;-67
2021/09/21 08:29:19;;;;;;;7.47;5.40;;;14.70;99.90;;;;;;5095107;28;20076;-67
2021/09/21 08:31:45;;;;;;;12.75;5.82;;;14.70;99.90;;;;;;5094939;28;20148;-67
2021/09/21 08:34:10;;;;;;;7.63;4.90;;;14.80;99.90;;;;;;5094956;28;20036;-66
2021/09/21 08:36:36;;;;;;;6.72;5.10;;;14.90;99.90;;;;;;5094859;28;20138;-67
2021/09/21 08:39:04;;;;;;;10.70;5.82;;;15.00;99.90;;;;;;5094977;28;20367;-67
2021/09/21 08:41:30;;;;;;;7.90;5.40;;;15.00;99.90;;;;;;5094803;28;20044;-67
2021/09/21 08:43:56;;;;;;;7.38;5.22;;;15.10;99.90;;;;;;5095342;28;20051;-67
2021/09/21 08:46:23;;;;;;;6.57;5.63;;;15.10;99.90;;;;;;5093488;28;20123;-67
2021/09/21 08:48:48;;;;;;;10.90;5.68;;;15.20;99.90;;;;;;5094549;28;20040;-67
2021/09/21 08:51:14;;;;;;;8.45;5.72;;;15.20;99.90;;;;;;5094609;28;20044;-67
2021/09/21 08:53:40;;;;;;;9.73;6.15;;;15.30;99.90;;;;;;5094760;28;20064;-67
2021/09/21 08:56:06;;;;;;;6.53;5.40;;;15.30;99.90;;;;;;5093701;28;20040;-67
2021/09/21 08:58:32;;;;;;;8.77;5.85;;;15.40;99.90;;;;;;5094257;28;20123;-67
2021/09/21 09:01:18;;;;;;;7.43;5.40;;;15.50;99.90;;;;;;5094472;28;20122;-67
2021/09/21 09:03:56;;;;;;;7.55;5.00;;;15.60;99.90;;;;;;5094574;28;20047;-67
2021/09/21 09:06:23;;;;;;;7.88;5.05;;;15.70;99.90;;;;;;5094573;28;20506;-67
2021/09/21 09:08:49;;;;;;;6.45;4.88;;;15.70;99.90;;;;;;5094041;28;20064;-67
2021/09/21 09:11:21;;;;;;;7.95;5.20;;;15.80;99.90;;;;;;5093194;28;20058;-67
2021/09/21 09:13:51;;;;;;;8.38;5.15;;;15.80;99.90;;;;;;5094326;28;20036;-67
2021/09/21 09:16:18;;;;;;;7.15;4.97;;;15.90;99.90;;;;;;5094513;28;20113;-67
2021/09/21 09:18:49;;;;;;;6.95;4.88;;;15.90;99.90;;;;;;5094095;28;20161;-67
2021/09/21 09:21:18;;;;;;;10.85;4.75;;;15.90;99.90;;;;;;5093340;28;20492;-67
2021/09/21 09:23:52;;;;;;;7.40;4.95;;;15.90;99.90;;;;;;5094463;28;20036;-67
2021/09/21 09:26:20;;;;;;;8.38;4.53;;;15.90;99.90;;;;;;5094174;28;20044;-67
2021/09/21 09:28:47;;;;;;;5.20;3.83;;;15.90;99.90;;;;;;5093783;28;20036;-67
2021/09/21 09:31:23;;;;;;;4.60;3.75;;;16.00;99.90;;;;;;5094520;28;20055;-67
2021/09/21 09:33:48;;;;;;;4.75;4.00;;;16.10;99.90;;;;;;5093089;28;20059;-67
2021/09/21 09:36:21;;;;;;;7.88;4.13;;;16.10;99.90;;;;;;5082026;28;20041;-67
2021/09/21 09:38:47;;;;;;;7.03;4.40;;;16.10;99.90;;;;;;5073468;28;20052;-67
2021/09/21 09:41:14;;;;;;;6.45;4.40;;;16.10;99.90;;;;;;5073861;28;20492;-67
2021/09/21 09:43:43;;;;;;;4.75;4.00;;;16.10;99.90;;;;;;5073879;28;20036;-67
2021/09/21 09:46:15;;;;;;;7.78;4.45;;;16.20;99.90;;;;;;5074015;28;20033;-67
2021/09/21 09:48:41;;;;;;;6.75;4.32;;;16.20;99.90;;;;;;5073392;28;20489;-67
2021/09/21 09:51:07;;;;;;;7.53;4.60;;;16.20;99.90;;;;;;5073475;28;20119;-67
2021/09/21 09:53:33;;;;;;;9.73;5.22;;;16.30;99.90;;;;;;5072615;28;20493;-67
2021/09/21 09:55:59;;;;;;;5.53;4.10;;;16.30;99.90;;;;;;5073793;28;20381;-68
2021/09/21 09:58:26;;;;;;;6.63;3.83;;;16.30;99.90;;;;;;5073627;28;20039;-67
2021/09/21 10:00:54;;;;;;;5.28;4.22;;;16.40;99.90;;;;;;5073177;28;20036;-67
2021/09/21 10:03:20;;;;;;;9.07;5.03;;;16.50;99.90;;;;;;5073576;28;20060;-67
2021/09/21 10:05:46;;;;;;;8.48;4.35;;;16.50;99.90;;;;;;5073342;28;20033;-67
2021/09/21 10:08:12;;;;;;;5.97;4.38;;;16.50;99.90;;;;;;5073660;28;20542;-68
2021/09/21 10:10:40;;;;;;;6.97;4.75;;;16.60;99.90;;;;;;5073349;28;20047;-67
2021/09/21 10:13:14;;;;;;;6.68;4.38;;;16.60;99.90;;;;;;5073550;28;20485;-67
2021/09/21 10:15:41;;;;;;;7.13;5.00;;;16.70;99.90;;;;;;5073320;28;20051;-67
2021/09/21 10:18:18;;;;;;;4.80;4.28;;;16.70;99.90;;;;;;5055487;28;20040;-67
2021/09/21 10:20:54;;;;;;;8.23;5.03;;;16.70;99.90;;;;;;5071339;28;20127;-67
2021/09/21 10:23:20;;;;;;;7.30;4.45;;;16.70;99.90;;;;;;5073409;28;20499;-67
2021/09/21 10:25:45;;;;;;;7.70;4.70;;;16.80;99.90;;;;;;5073284;28;20086;-67
2021/09/21 10:28:17;;;;;;;5.35;4.63;;;16.80;99.90;;;;;;5073127;28;20033;-68
2021/09/21 10:30:58;;;;;;;7.10;4.43;;;16.80;99.90;;;;;;5072987;28;20064;-68
2021/09/21 10:33:24;;;;;;;7.18;4.82;;;16.90;99.90;;;;;;5074997;28;20040;-68
2021/09/21 10:35:52;;;;;;;5.22;4.15;;;17.00;99.90;;;;;;5075832;28;20044;-68
2021/09/21 10:38:19;;;;;;;6.20;4.60;;;17.00;99.90;;;;;;5076941;28;20036;-68
2021/09/21 10:40:51;;;;;;;6.65;4.50;;;17.00;99.90;;;;;;5076504;28;20036;-67
2021/09/21 10:43:31;;;;;;;8.70;5.72;;;17.00;99.90;;;;;;5076380;28;20048;-67
2021/09/21 10:46:22;;;;;;;6.90;4.95;;;17.10;99.90;;;;;;5075893;28;20500;-67
2021/09/21 10:48:48;;;;;;;8.02;4.60;;;17.10;99.90;;;;;;5075701;28;20064;-68
2021/09/21 10:51:14;;;;;;;7.88;4.50;;;17.10;99.90;;;;;;5076802;28;20449;-68
2021/09/21 10:53:40;;;;;;;8.70;4.75;;;17.20;99.90;;;;;;5075509;28;20071;-67
2021/09/21 10:56:11;;;;;;;8.98;4.78;;;17.30;99.90;;;;;;5075302;28;20036;-67
2021/09/21 10:58:38;;;;;;;6.47;4.72;;;17.20;99.90;;;;;;5076242;28;20033;-67
2021/09/21 11:01:06;;;;;;;7.10;4.97;;;17.30;99.90;;;;;;5075410;28;20129;-68
2021/09/21 11:03:35;;;;;;;6.40;5.10;;;17.30;99.90;;;;;;5075510;28;20097;-67
2021/09/21 11:06:01;;;;;;;5.93;4.50;;;17.40;99.90;;;;;;5075437;28;20131;-67
2021/09/21 11:08:34;;;;;;;7.40;4.13;;;17.50;99.90;;;;;;5076654;28;20062;-67
2021/09/21 11:11:03;;;;;;;5.80;4.45;;;17.50;99.90;;;;;;5075623;28;20051;-68
2021/09/21 11:13:34;;;;;;;9.95;5.03;;;17.60;99.90;;;;;;5076879;28;20032;-67
2021/09/21 11:16:02;;;;;;;7.85;5.53;;;17.70;99.90;;;;;;5076760;28;20516;-67
2021/09/21 11:18:28;;;;;;;7.65;5.03;;;17.70;99.90;;;;;;5076342;28;20041;-67
2021/09/21 11:20:55;;;;;;;5.43;4.63;;;17.70;99.90;;;;;;5076185;28;20492;-67
2021/09/21 11:23:24;;;;;;;8.25;5.03;;;17.80;99.90;;;;;;5075372;28;20476;-67
2021/09/21 11:25:50;;;;;;;9.30;4.75;;;17.80;99.90;;;;;;5075868;28;20101;-67
2021/09/21 11:28:17;;;;;;;7.13;5.55;;;17.80;99.90;;;;;;5075396;28;20040;-67
2021/09/21 11:30:44;;;;;;;7.55;4.20;;;17.70;99.90;;;;;;5076221;28;20044;-67
2021/09/21 11:33:12;;;;;;;7.78;5.00;;;17.60;99.90;;;;;;5076228;28;20040;-68
2021/09/21 11:35:38;;;;;;;6.43;5.35;;;17.60;99.90;;;;;;5076141;28;20036;-68
2021/09/21 11:38:03;;;;;;;7.45;4.63;;;17.60;99.90;;;;;;5076006;28;20342;-67
2021/09/21 11:40:32;;;;;;;8.63;4.22;;;17.60;99.90;;;;;;5075846;28;20465;-67
2021/09/21 11:42:59;;;;;;;10.60;4.85;;;17.60;99.90;;;;;;5076212;28;20040;-68
2021/09/21 11:45:25;;;;;;;6.22;4.65;;;17.60;99.90;;;;;;5075449;28;20044;-67
2021/09/21 11:47:51;;;;;;;8.57;5.00;;;17.60;99.90;;;;;;5075968;28;20056;-67
2021/09/21 11:50:22;;;;;;;7.85;4.43;;;17.70;99.90;;;;;;5075250;28;20059;-68
2021/09/21 11:52:55;;;;;;;6.57;4.93;;;17.70;99.90;;;;;;5074567;28;20104;-68
2021/09/21 11:55:23;;;;;;;6.65;4.70;;;17.70;99.90;;;;;;5075707;28;20048;-67
2021/09/21 11:57:50;;;;;;;8.63;5.78;;;17.70;99.90;;;;;;5076138;28;20036;-67
2021/09/21 12:00:26;;;;;;;6.82;4.25;;;17.70;99.90;;;;;;5074323;28;20052;-67
2021/09/21 12:03:00;;;;;;;6.15;4.78;;;17.70;99.90;;;;;;5075399;28;20044;-67
2021/09/21 12:05:27;;;;;;;7.18;4.65;;;17.70;99.90;;;;;;5075442;28;20040;-67
2021/09/21 12:07:53;;;;;;;7.97;4.35;;;17.70;99.90;;;;;;5074228;28;20037;-68
2021/09/21 12:10:22;;;;;;;5.80;4.53;;;17.60;99.90;;;;;;5074969;28;20173;-68
2021/09/21 12:13:10;;;;;;;6.00;4.60;;;17.70;99.90;;;;;;5075421;28;20048;-68
2021/09/21 12:15:37;;;;;;;6.75;4.97;;;17.60;99.90;;;;;;5073909;28;20044;-67
2021/09/21 12:18:11;;;;;;;9.20;5.57;;;17.60;99.90;;;;;;5074297;28;20036;-68
2021/09/21 12:20:38;;;;;;;9.70;4.65;;;17.50;99.90;;;;;;5074626;28;20097;-68
2021/09/21 12:23:05;;;;;;;10.93;4.80;;;17.30;99.90;;;;;;5073603;28;20044;-68
2021/09/21 12:25:32;;;;;;;10.32;4.72;;;17.30;99.90;;;;;;5075430;28;20066;-68
2021/09/21 12:28:00;;;;;;;7.13;4.70;;;17.20;99.90;;;;;;5074920;28;20044;-68
2021/09/21 12:30:34;;;;;;;7.75;5.13;;;17.20;99.90;;;;;;5075048;28;20068;-68
2021/09/21 12:33:02;;;;;;;8.75;5.18;;;17.10;99.90;;;;;;5075188;28;20072;-68
2021/09/21 12:35:49;;;;;;;11.07;4.63;;;17.10;99.90;;;;;;5074853;28;20041;-68
2021/09/21 12:38:17;;;;;;;7.85;5.20;;;17.00;99.90;;;;;;5075085;28;20039;-68
2021/09/21 12:40:51;;;;;;;7.28;4.68;;;17.00;99.90;;;;;;5074326;28;20047;-68
2021/09/21 12:43:22;;;;;;;7.97;5.43;;;17.00;99.90;;;;;;5074722;28;20082;-68
2021/09/21 12:45:50;;;;;;;7.10;5.20;;;17.10;99.90;;;;;;5074866;28;20544;-68
2021/09/21 12:48:16;;;;;;;7.03;4.88;;;17.10;99.90;;;;;;5074643;28;20040;-68
2021/09/21 12:50:42;;;;;;;6.90;4.70;;;17.10;99.90;;;;;;5074189;28;20595;-68
2021/09/21 12:53:18;;;;;;;8.88;4.65;;;17.10;99.90;;;;;;5074233;28;20511;-68
2021/09/21 12:55:44;;;;;;;7.75;4.72;;;17.10;99.90;;;;;;5074442;28;20064;-68
2021/09/21 12:58:12;;;;;;;11.23;5.25;;;17.20;99.90;;;;;;5073655;28;20052;-68